createdAt,value
2023-02-12T00:01:10.425Z,99.90
2023-02-12T00:03:59.058Z,99.90
2023-02-12T00:06:47.557Z,99.90
2023-02-12T00:09:35.961Z,99.90
2023-02-12T00:12:24.465Z,99.90
2023-02-12T00:15:14.279Z,99.90
2023-02-12T00:18:02.701Z,99.90
2023-02-12T00:20:51.135Z,99.90
2023-02-12T00:23:41.121Z,99.90
2023-02-12T00:26:29.992Z,99.90
2023-02-12T00:29:18.706Z,99.90
2023-02-12T00:32:08.770Z,99.90
2023-02-12T00:34:57.264Z,99.90
2023-02-12T00:37:45.769Z,99.90
2023-02-12T00:40:34.256Z,99.90
2023-02-12T00:43:22.768Z,99.90
2023-02-12T00:46:11.335Z,99.90
2023-02-12T00:49:01.209Z,99.90
2023-02-12T00:51:49.756Z,99.90
2023-02-12T00:54:38.403Z,99.90
2023-02-12T00:57:26.933Z,99.90
2023-02-12T01:00:16.552Z,99.90
2023-02-12T01:03:05.590Z,99.90
2023-02-12T01:05:55.748Z,99.90
2023-02-12T01:08:44.374Z,99.90
2023-02-12T01:11:32.809Z,99.90
2023-02-12T01:17:10.691Z,99.90
2023-02-12T01:19:59.794Z,99.90
2023-02-12T01:22:49.923Z,99.90
2023-02-12T01:25:39.793Z,99.90
2023-02-12T01:28:28.371Z,99.90
2023-02-12T01:31:20.007Z,99.90
2023-02-12T01:34:09.310Z,99.90
2023-02-12T01:36:57.711Z,99.90
2023-02-12T01:39:47.553Z,99.90
2023-02-12T01:42:36.193Z,99.90
2023-02-12T01:45:46.117Z,99.90
2023-02-12T01:48:38.262Z,99.90
2023-02-12T01:51:28.708Z,99.90
2023-02-12T01:54:20.931Z,99.90
2023-02-12T01:57:13.164Z,99.90
2023-02-12T02:00:05.464Z,99.90
2023-02-12T02:02:59.425Z,99.90
2023-02-12T02:05:54.451Z,99.90
2023-02-12T02:08:43.865Z,99.90
2023-02-12T02:11:49.655Z,99.90
2023-02-12T02:17:47.367Z,99.90
2023-02-12T02:21:03.940Z,99.90
2023-02-12T02:24:21.172Z,99.90
2023-02-12T02:27:25.376Z,99.90
2023-02-12T02:30:40.541Z,99.90
2023-02-12T02:33:38.536Z,99.90
2023-02-12T02:36:33.963Z,99.90
2023-02-12T02:39:29.054Z,99.90
2023-02-12T02:45:12.799Z,99.90
2023-02-12T02:48:06.155Z,99.90
2023-02-12T02:51:00.027Z,99.90
2023-02-12T02:53:54.118Z,99.90
2023-02-12T02:56:45.513Z,99.90
2023-02-12T02:59:38.388Z,99.90
2023-02-12T03:02:29.402Z,99.90
2023-02-12T03:05:23.614Z,99.90
2023-02-12T03:08:16.465Z,99.90
2023-02-12T03:11:09.092Z,99.90
2023-02-12T03:14:01.961Z,99.90
2023-02-12T03:16:56.158Z,99.90
2023-02-12T03:19:48.759Z,99.90
2023-02-12T03:22:43.909Z,99.90
2023-02-12T03:28:49.124Z,99.90
2023-02-12T03:31:45.134Z,99.90
2023-02-12T03:34:44.465Z,99.90
2023-02-12T03:37:37.007Z,99.90
2023-02-12T03:40:30.941Z,99.90
2023-02-12T03:43:26.175Z,99.90
2023-02-12T03:46:21.860Z,99.90
2023-02-12T03:49:16.475Z,99.90
2023-02-12T03:52:05.708Z,99.90
2023-02-12T03:54:54.267Z,99.90
2023-02-12T03:58:17.652Z,99.90
2023-02-12T04:01:08.134Z,99.90
2023-02-12T05:44:00.628Z,99.90
2023-02-12T05:46:49.120Z,99.90
2023-02-12T05:49:37.543Z,99.90
2023-02-12T05:52:26.048Z,99.90
2023-02-12T05:55:14.603Z,99.90
2023-02-12T05:58:03.085Z,99.90
2023-02-12T06:00:52.866Z,99.90
2023-02-12T06:03:41.754Z,99.90
2023-02-12T06:06:31.444Z,99.90
2023-02-12T06:09:20.433Z,99.90
2023-02-12T06:12:08.976Z,99.90
2023-02-12T06:14:57.391Z,99.90
2023-02-12T06:17:47.156Z,99.90
2023-02-12T06:20:35.616Z,99.90
2023-02-12T06:23:24.500Z,99.90
2023-02-12T06:26:12.975Z,99.90
2023-02-12T06:29:02.611Z,99.90
2023-02-12T06:31:51.355Z,99.90
2023-02-12T06:34:41.614Z,99.90
2023-02-12T06:37:30.036Z,99.90
2023-02-12T06:40:19.095Z,99.90
2023-02-12T06:43:07.606Z,99.90
2023-02-12T06:45:56.423Z,99.90
2023-02-12T06:48:45.272Z,99.90
2023-02-12T06:51:36.379Z,99.90
2023-02-12T06:54:24.812Z,99.90
2023-02-12T06:57:13.235Z,99.90
2023-02-12T07:00:01.788Z,99.90
2023-02-12T07:02:54.560Z,99.90
2023-02-12T07:05:43.009Z,99.90
2023-02-12T07:08:32.860Z,99.90
2023-02-12T07:11:25.180Z,99.90
2023-02-12T07:14:15.996Z,99.90
2023-02-12T07:17:05.452Z,99.90
2023-02-12T07:19:53.886Z,99.90
2023-02-12T07:22:42.400Z,99.90
2023-02-12T07:25:32.213Z,99.90
2023-02-12T07:28:20.735Z,99.90
2023-02-12T07:31:10.664Z,99.90
2023-02-12T07:34:00.908Z,99.90
2023-02-12T07:36:49.310Z,99.90
2023-02-12T07:39:37.723Z,99.90
2023-02-12T07:42:27.500Z,99.90
2023-02-12T07:45:16.114Z,99.90
2023-02-12T07:48:04.728Z,99.90
2023-02-12T07:50:53.262Z,99.90
2023-02-12T07:53:42.687Z,99.90
2023-02-12T07:56:35.281Z,99.90
2023-02-12T07:59:25.155Z,99.90
2023-02-12T08:02:13.785Z,99.90
2023-02-12T08:05:02.281Z,99.90
2023-02-12T08:07:50.806Z,99.90
2023-02-12T08:10:39.356Z,99.90
2023-02-12T08:13:27.876Z,99.90
2023-02-12T08:16:19.473Z,99.90
2023-02-12T08:19:17.911Z,99.90
2023-02-12T08:22:08.395Z,99.90
2023-02-12T08:24:56.837Z,99.90
2023-02-12T08:27:45.332Z,99.90
2023-02-12T08:30:33.770Z,99.90
2023-02-12T08:33:23.861Z,99.90
2023-02-12T08:36:15.398Z,99.90
2023-02-12T08:39:03.884Z,99.90
2023-02-12T08:41:52.571Z,99.90
2023-02-12T08:44:41.001Z,99.90
2023-02-12T08:47:31.295Z,99.90
2023-02-12T08:50:21.365Z,99.90
2023-02-12T08:53:09.841Z,99.90
2023-02-12T08:55:58.287Z,99.90
2023-02-12T08:58:47.495Z,99.90
2023-02-12T09:01:39.033Z,99.90
2023-02-12T09:04:29.481Z,99.90
2023-02-12T09:07:19.355Z,99.90
2023-02-12T09:10:09.085Z,99.90
2023-02-12T09:12:57.564Z,99.90
2023-02-12T09:15:46.866Z,99.90
2023-02-12T09:18:36.625Z,99.90
2023-02-12T09:21:25.336Z,99.90
2023-02-12T09:24:15.175Z,99.90
2023-02-12T09:27:03.616Z,99.90
2023-02-12T09:29:52.049Z,99.90
2023-02-12T09:32:40.494Z,99.90
2023-02-12T09:35:28.939Z,99.90
2023-02-12T09:38:17.462Z,99.90
2023-02-12T09:41:43.759Z,99.90
2023-02-12T09:44:39.992Z,99.90
2023-02-12T09:47:34.698Z,99.90
2023-02-12T09:50:34.748Z,99.90
2023-02-12T09:53:25.988Z,99.90
2023-02-12T09:56:19.682Z,99.90
2023-02-12T10:35:15.769Z,99.90
2023-02-12T10:38:08.880Z,99.90
2023-02-12T10:41:01.762Z,99.90
2023-02-12T10:43:50.429Z,99.90
2023-02-12T10:46:39.548Z,99.90
2023-02-12T10:49:31.074Z,99.90
2023-02-12T10:52:34.897Z,99.90
2023-02-12T10:55:32.418Z,99.90
2023-02-12T10:58:24.258Z,99.90
2023-02-12T11:01:18.996Z,99.90
2023-02-12T11:04:22.788Z,99.90
2023-02-12T11:07:11.333Z,99.90
2023-02-12T11:10:01.172Z,99.90
2023-02-12T11:12:49.871Z,99.90
2023-02-12T11:15:47.282Z,99.90
2023-02-12T11:18:37.319Z,99.90
2023-02-12T11:21:25.844Z,99.90
2023-02-12T11:24:33.113Z,99.90
2023-02-12T11:27:25.875Z,99.90
2023-02-12T11:30:19.509Z,99.90
2023-02-12T11:33:28.194Z,99.90
2023-02-12T11:36:24.480Z,99.90
2023-02-12T11:39:22.204Z,99.90
2023-02-12T11:42:18.575Z,99.90
2023-02-12T11:45:17.681Z,99.90
2023-02-12T11:48:17.679Z,99.90
2023-02-12T11:51:09.361Z,99.90
2023-02-12T11:54:01.128Z,99.90
2023-02-12T11:56:49.985Z,99.90
2023-02-12T11:59:42.757Z,99.90
2023-02-12T12:02:39.238Z,99.90
2023-02-12T12:05:33.270Z,99.90
2023-02-12T12:08:27.019Z,99.90
2023-02-12T12:11:21.946Z,99.90
2023-02-12T12:14:18.807Z,99.70
2023-02-12T12:17:32.571Z,99.60
2023-02-12T12:20:26.386Z,99.90
2023-02-12T12:23:19.930Z,98.50
2023-02-12T12:26:14.180Z,98.80
2023-02-12T12:29:06.763Z,98.70
2023-02-12T12:32:00.732Z,99.20
2023-02-12T12:34:49.536Z,99.60
2023-02-12T12:37:45.304Z,98.80
2023-02-12T12:40:44.088Z,99.90
2023-02-12T12:43:40.780Z,99.90
2023-02-12T12:47:02.931Z,99.80
2023-02-12T12:50:09.210Z,99.90
2023-02-12T12:53:12.328Z,99.90
2023-02-12T12:56:34.552Z,99.90
2023-02-12T12:59:52.976Z,99.90
2023-02-12T13:03:24.416Z,99.00
2023-02-12T13:06:46.211Z,99.30
2023-02-12T13:09:49.446Z,97.50
2023-02-12T13:13:01.403Z,95.70
2023-02-12T13:15:57.331Z,97.00
2023-02-12T13:18:58.994Z,97.80
2023-02-12T13:21:54.230Z,96.40
2023-02-12T13:24:51.150Z,96.80
2023-02-12T13:27:42.316Z,96.40
2023-02-12T13:30:34.797Z,95.80
2023-02-12T13:33:26.636Z,95.50
2023-02-12T13:36:16.034Z,95.70
2023-02-12T13:39:11.856Z,94.20
2023-02-12T13:42:13.889Z,95.50
2023-02-12T13:45:16.481Z,95.10
2023-02-12T13:48:34.760Z,94.60
2023-02-12T13:51:33.118Z,94.20
2023-02-12T13:54:38.977Z,95.30
2023-02-12T13:57:28.853Z,93.30
2023-02-12T14:00:56.798Z,94.40
2023-02-12T14:03:45.258Z,94.30
2023-02-12T14:06:35.280Z,94.30
2023-02-12T14:09:32.288Z,95.20
2023-02-12T14:12:39.786Z,95.30
2023-02-12T14:15:35.867Z,96.60
2023-02-12T14:18:30.700Z,96.20
2023-02-12T14:21:45.812Z,94.60
2023-02-12T14:24:53.496Z,99.60
2023-02-12T14:27:46.840Z,92.80
2023-02-12T14:30:46.962Z,93.60
2023-02-12T14:33:35.540Z,93.50
2023-02-12T14:36:40.930Z,94.50
2023-02-12T14:39:30.853Z,95.20
2023-02-12T14:42:55.738Z,95.00
2023-02-12T14:45:44.351Z,93.80
2023-02-12T14:48:53.192Z,94.80
2023-02-12T14:51:46.168Z,94.80
2023-02-12T14:54:48.768Z,95.60
2023-02-12T14:57:42.293Z,96.30
2023-02-12T15:00:35.792Z,96.40
2023-02-12T15:03:30.196Z,96.40
2023-02-12T15:06:22.222Z,96.90
2023-02-12T15:09:13.381Z,96.30
2023-02-12T15:12:14.153Z,96.00
2023-02-12T15:15:21.807Z,95.90
2023-02-12T15:18:19.420Z,95.90
2023-02-12T15:21:16.512Z,96.90
2023-02-12T15:24:09.992Z,96.40
2023-02-12T15:27:01.151Z,96.40
2023-02-12T15:29:55.013Z,96.70
2023-02-12T15:32:47.472Z,97.00
2023-02-12T15:35:45.368Z,97.20
2023-02-12T15:38:37.380Z,97.40
2023-02-12T15:41:29.496Z,97.80
2023-02-12T15:44:25.768Z,98.20
2023-02-12T15:47:16.372Z,98.60
2023-02-12T15:50:05.318Z,99.10
2023-02-12T15:52:56.692Z,99.80
2023-02-12T15:55:47.792Z,99.90
2023-02-12T15:58:42.692Z,99.90
2023-02-12T16:01:33.488Z,99.90
2023-02-12T16:04:22.388Z,99.90
2023-02-12T16:07:13.481Z,99.90
2023-02-12T16:10:04.679Z,99.90
2023-02-12T16:12:54.231Z,99.90
2023-02-12T16:15:43.525Z,99.90
2023-02-12T16:18:32.356Z,99.90
2023-02-12T16:21:23.766Z,99.90
2023-02-12T16:24:27.154Z,99.90
2023-02-12T16:27:22.147Z,99.90
2023-02-12T16:30:27.816Z,99.90
2023-02-12T16:33:35.938Z,99.90
2023-02-12T16:36:33.021Z,99.90
2023-02-12T16:42:37.890Z,99.90
2023-02-12T16:45:38.388Z,99.90
2023-02-12T16:48:27.106Z,99.90
2023-02-12T16:51:24.715Z,99.90
2023-02-12T16:54:28.893Z,99.90
2023-02-12T16:57:17.437Z,99.90
2023-02-12T17:00:09.712Z,99.90
2023-02-12T17:05:49.369Z,99.90
2023-02-12T17:08:37.983Z,99.90
2023-02-12T17:11:29.050Z,99.90
2023-02-12T17:14:20.142Z,99.90
2023-02-12T17:17:10.209Z,99.90
2023-02-12T17:19:58.849Z,99.90
2023-02-12T17:22:51.556Z,99.90
2023-02-12T17:25:40.056Z,99.90
2023-02-12T17:28:28.687Z,99.90
2023-02-12T17:31:17.694Z,99.90
2023-02-12T17:34:07.684Z,99.90
2023-02-12T17:36:56.277Z,99.90
2023-02-12T17:39:45.018Z,99.90
2023-02-12T17:42:34.022Z,99.90
2023-02-12T17:45:22.621Z,99.90
2023-02-12T17:48:11.560Z,99.90
2023-02-12T17:51:01.444Z,99.90
2023-02-12T17:53:50.291Z,99.90
2023-02-12T17:56:38.744Z,99.90
2023-02-12T17:59:27.260Z,99.90
2023-02-12T18:02:15.754Z,99.90
2023-02-12T18:05:04.326Z,99.90
2023-02-12T18:07:54.454Z,99.90
2023-02-12T18:10:43.632Z,99.90
2023-02-12T18:13:32.214Z,99.90
2023-02-12T18:16:21.410Z,99.90
2023-02-12T18:19:09.965Z,99.90
2023-02-12T18:21:58.677Z,99.90
2023-02-12T18:24:48.742Z,99.90
2023-02-12T18:27:39.555Z,99.90
2023-02-12T18:30:28.409Z,99.90
2023-02-12T18:33:17.076Z,99.90
2023-02-12T18:36:07.647Z,99.90
2023-02-12T18:38:56.242Z,99.90
2023-02-12T18:41:47.612Z,99.90
2023-02-12T18:44:36.972Z,99.90
2023-02-12T18:47:25.516Z,99.90
2023-02-12T18:50:14.046Z,99.90
2023-02-12T18:53:02.810Z,99.90
2023-02-12T18:55:52.413Z,99.90
2023-02-12T18:58:42.368Z,99.90
2023-02-12T19:01:30.936Z,99.90
2023-02-12T19:04:21.755Z,99.90
2023-02-12T19:07:10.401Z,99.90
2023-02-12T19:09:58.934Z,99.90
2023-02-12T19:12:47.503Z,99.90
2023-02-12T19:15:40.112Z,99.90
2023-02-12T19:18:28.678Z,99.90
2023-02-12T19:21:17.629Z,99.90
2023-02-12T19:24:06.786Z,99.90
2023-02-12T19:26:55.760Z,99.90
2023-02-12T19:29:44.655Z,99.90
2023-02-12T19:32:34.452Z,99.90
2023-02-12T19:35:23.038Z,99.90
2023-02-12T19:38:11.523Z,99.90
2023-02-12T19:41:04.487Z,99.90
2023-02-12T19:43:55.911Z,99.90
2023-02-12T19:46:45.516Z,99.90
2023-02-12T19:49:35.410Z,99.90
2023-02-12T19:52:23.870Z,99.90
2023-02-12T19:55:12.388Z,99.90
2023-02-12T19:58:00.983Z,99.90
2023-02-12T20:00:50.055Z,99.90
2023-02-12T20:03:39.023Z,99.90
2023-02-12T20:06:31.520Z,99.90
2023-02-12T20:09:20.974Z,99.90
2023-02-12T20:12:09.504Z,99.90
2023-02-12T20:15:00.933Z,99.90
2023-02-12T20:17:49.505Z,99.90
2023-02-12T20:20:37.951Z,99.90
2023-02-12T20:23:28.003Z,99.90
2023-02-12T20:26:17.485Z,99.90
2023-02-12T20:29:06.458Z,99.90
2023-02-12T20:31:55.223Z,99.90
2023-02-12T20:34:50.930Z,99.90
2023-02-12T20:37:39.890Z,99.90
2023-02-12T20:40:29.818Z,99.90
2023-02-12T20:43:18.385Z,99.90
2023-02-12T20:46:07.923Z,99.90
2023-02-12T20:48:57.697Z,99.90
2023-02-12T20:51:47.427Z,99.90
2023-02-12T20:54:38.057Z,99.90
2023-02-12T20:57:27.951Z,99.90
2023-02-12T21:00:17.606Z,99.90
2023-02-12T21:03:06.372Z,99.90
2023-02-12T21:05:55.340Z,99.90
2023-02-12T21:08:44.349Z,99.90
2023-02-12T21:11:33.348Z,99.90
2023-02-12T21:14:24.499Z,99.90
2023-02-12T21:17:13.230Z,99.90
2023-02-12T21:20:02.074Z,99.90
2023-02-12T21:22:50.672Z,99.90
2023-02-12T21:25:39.193Z,99.90
2023-02-12T21:28:27.887Z,99.90
2023-02-12T21:31:20.993Z,99.90
2023-02-12T21:34:12.354Z,99.90
2023-02-12T21:37:00.912Z,99.90
2023-02-12T21:39:49.471Z,99.90
2023-02-12T21:42:37.916Z,99.90
2023-02-12T21:45:26.432Z,99.90
2023-02-12T21:48:16.294Z,99.90
2023-02-12T21:51:04.982Z,99.90
2023-02-12T21:53:55.116Z,99.90
2023-02-12T21:56:45.367Z,99.90
2023-02-12T21:59:34.088Z,99.90
2023-02-12T22:02:22.723Z,99.90
2023-02-12T22:05:12.737Z,99.90
2023-02-12T22:08:01.571Z,99.90
2023-02-12T22:10:50.074Z,99.90
2023-02-12T22:13:39.872Z,99.90
2023-02-12T22:16:30.103Z,99.90
2023-02-12T22:19:18.817Z,99.90
2023-02-12T22:22:08.636Z,99.90
2023-02-12T22:24:57.152Z,99.90
2023-02-12T22:27:45.617Z,99.90
2023-02-12T22:30:34.167Z,99.90
2023-02-12T22:33:22.639Z,99.90
2023-02-12T22:36:11.448Z,99.90
2023-02-12T22:39:01.861Z,99.90
2023-02-12T22:41:50.545Z,99.90
2023-02-12T22:44:39.181Z,99.90
2023-02-12T22:47:31.902Z,99.90
2023-02-12T22:50:20.652Z,99.90
2023-02-12T22:53:09.300Z,99.90
2023-02-12T22:56:03.049Z,99.90
2023-02-12T22:58:55.894Z,99.90
2023-02-12T23:01:44.803Z,99.90
2023-02-12T23:04:33.688Z,99.90
2023-02-12T23:07:22.277Z,99.90
2023-02-12T23:10:11.222Z,99.90
2023-02-12T23:13:02.674Z,99.90
2023-02-12T23:15:51.241Z,99.90
2023-02-12T23:18:39.868Z,99.90
2023-02-12T23:21:29.886Z,99.90
2023-02-12T23:24:18.478Z,99.90
2023-02-12T23:27:06.993Z,99.90
2023-02-12T23:29:56.902Z,99.90
2023-02-12T23:32:45.356Z,99.90
2023-02-12T23:35:34.036Z,99.90
2023-02-12T23:38:22.633Z,99.90
2023-02-12T23:41:11.540Z,99.90
2023-02-12T23:44:00.122Z,99.90
2023-02-12T23:46:52.046Z,99.90
2023-02-12T23:49:40.651Z,99.90
2023-02-12T23:52:29.362Z,99.90
2023-02-12T23:55:20.304Z,99.90
2023-02-12T23:58:09.477Z,99.90
